Le Roy, Michigan
Current Conditions -  °F | °C
As of 1:15 PM on Friday 31 Oct 2014 (Local Time) from KCAD Reporting Station
Overcast Overcast  
Wind Chill: -6°   Ceiling: 1900
Heat Index: -1°   Visibility: 10mi
Dew Point: -3°   Wind: 13mph
Humidity: 83%   Direction: 10°N
Pressure: 30.09"   Gusts: 25mph
Location:  44.0236°N, 85.4348°W
Report Text: KCAD 311715Z AUTO 01011G22KT 10SM OVC019 00/M03 A3009 RMK AO2 T10071032
Loading
Personal Weather Stations






























Interactive Weather Map
Tropical Storm Tracking
New forecast layout! Learn more

10-Day Weather Forecast

Advertisements
Track Severe Weather on mobile